createdAt,value
2023-04-23T00:00:17.249Z,8.25
2023-04-23T00:03:06.293Z,7.80
2023-04-23T00:05:53.189Z,7.90
2023-04-23T00:08:39.852Z,8.07
2023-04-23T00:11:24.128Z,8.25
2023-04-23T00:14:08.292Z,8.13
2023-04-23T00:16:54.084Z,8.29
2023-04-23T00:19:37.890Z,8.23
2023-04-23T00:22:22.221Z,8.07
2023-04-23T00:25:06.716Z,7.99
2023-04-23T00:27:50.755Z,7.98
2023-04-23T00:30:34.894Z,7.86
2023-04-23T00:33:20.945Z,7.91
2023-04-23T00:36:04.831Z,7.82
2023-04-23T00:38:48.638Z,8.25
2023-04-23T00:41:32.910Z,8.41
2023-04-23T00:44:16.867Z,8.21
2023-04-23T00:47:01.960Z,8.19
2023-04-23T00:49:47.614Z,8.07
2023-04-23T00:52:31.794Z,8.15
2023-04-23T00:55:15.968Z,8.41
2023-04-23T00:58:00.856Z,8.48
2023-04-23T01:00:48.600Z,8.27
2023-04-23T01:03:33.358Z,8.10
2023-04-23T01:06:19.070Z,7.94
2023-04-23T01:09:03.660Z,8.08
2023-04-23T01:11:48.604Z,7.90
2023-04-23T01:14:32.856Z,7.93
2023-04-23T01:17:17.181Z,7.84
2023-04-23T01:20:01.068Z,7.89
2023-04-23T01:22:49.467Z,7.83
2023-04-23T01:25:33.541Z,7.27
2023-04-23T01:28:17.649Z,7.48
2023-04-23T01:31:02.532Z,7.37
2023-04-23T01:33:47.977Z,7.75
2023-04-23T01:36:32.646Z,7.60
2023-04-23T01:39:18.353Z,8.04
2023-04-23T01:42:02.891Z,8.27
2023-04-23T01:44:47.259Z,8.26
2023-04-23T01:47:32.339Z,8.21
2023-04-23T01:50:16.644Z,8.54
2023-04-23T01:53:00.545Z,8.48
2023-04-23T01:55:48.203Z,8.28
2023-04-23T01:58:32.430Z,8.21
2023-04-23T02:01:16.396Z,7.78
2023-04-23T02:04:00.443Z,8.03
2023-04-23T02:06:47.231Z,7.90
2023-04-23T02:09:31.195Z,8.50
2023-04-23T02:12:19.565Z,8.67
2023-04-23T02:15:03.774Z,8.48
2023-04-23T02:17:52.437Z,8.56
2023-04-23T02:20:38.913Z,8.57
2023-04-23T02:23:22.816Z,9.00
2023-04-23T02:26:07.907Z,8.96
2023-04-23T02:28:53.325Z,8.81
2023-04-23T02:31:37.365Z,8.82
2023-04-23T02:34:21.249Z,8.80
2023-04-23T02:37:06.306Z,8.71
2023-04-23T02:39:50.452Z,8.07
2023-04-23T02:42:34.496Z,8.52
2023-04-23T02:45:20.002Z,8.42
2023-04-23T02:48:04.370Z,8.25
2023-04-23T02:50:48.400Z,8.07
2023-04-23T02:53:32.432Z,7.78
2023-04-23T02:56:16.632Z,7.59
2023-04-23T02:59:01.525Z,7.74
2023-04-23T03:01:46.938Z,7.99
2023-04-23T03:04:32.024Z,8.12
2023-04-23T03:07:17.512Z,8.10
2023-04-23T03:10:01.501Z,7.80
2023-04-23T03:12:48.476Z,7.60
2023-04-23T03:15:32.721Z,7.46
2023-04-23T03:18:18.106Z,7.62
2023-04-23T03:21:05.462Z,7.32
2023-04-23T03:23:49.424Z,7.73
2023-04-23T03:26:34.769Z,7.94
2023-04-23T03:29:18.798Z,7.96
2023-04-23T03:32:02.994Z,7.97
2023-04-23T03:34:49.038Z,8.23
2023-04-23T03:37:33.508Z,8.45
2023-04-23T03:40:17.948Z,8.47
2023-04-23T03:43:05.193Z,8.55
2023-04-23T03:46:09.080Z,8.68
2023-04-23T03:48:56.880Z,8.47
2023-04-23T03:51:45.748Z,8.79
2023-04-23T03:54:29.924Z,8.77
2023-04-23T03:57:33.239Z,8.73
2023-04-23T04:00:33.798Z,8.92
2023-04-23T04:03:17.999Z,8.87
2023-04-23T04:06:02.235Z,8.79
2023-04-23T04:08:47.850Z,8.45
2023-04-23T04:11:31.822Z,8.52
2023-04-23T04:14:15.749Z,8.98
2023-04-23T04:17:00.237Z,8.92
2023-04-23T04:19:44.222Z,8.91
2023-04-23T04:22:28.179Z,8.92
2023-04-23T04:25:13.494Z,9.05
2023-04-23T04:27:57.658Z,9.05
2023-04-23T04:30:42.618Z,9.09
2023-04-23T04:33:27.016Z,9.12
2023-04-23T04:36:11.099Z,9.78
2023-04-23T04:38:56.121Z,10.01
2023-04-23T04:41:41.729Z,10.24
2023-04-23T04:44:25.573Z,10.28
2023-04-23T04:47:09.537Z,10.21
2023-04-23T04:49:57.178Z,10.65
2023-04-23T04:52:41.128Z,10.78
2023-04-23T04:55:25.116Z,10.56
2023-04-23T04:58:10.383Z,10.32
2023-04-23T05:00:55.912Z,10.42
2023-04-23T05:03:40.126Z,10.70
2023-04-23T05:06:24.135Z,10.90
2023-04-23T05:09:08.320Z,11.15
2023-04-23T05:11:52.968Z,11.52
2023-04-23T05:14:38.261Z,11.80
2023-04-23T05:17:22.432Z,11.81
2023-04-23T05:20:08.436Z,12.18
2023-04-23T05:22:52.324Z,12.18
2023-04-23T05:25:36.226Z,12.22
2023-04-23T05:28:20.029Z,12.02
2023-04-23T05:31:05.440Z,12.12
2023-04-23T05:33:50.685Z,11.91
2023-04-23T05:36:35.057Z,11.99
2023-04-23T05:39:18.894Z,11.96
2023-04-23T05:42:03.213Z,11.98
2023-04-23T05:44:47.256Z,12.17
2023-04-23T05:47:32.513Z,11.96
2023-04-23T05:50:17.135Z,12.46
2023-04-23T05:53:00.957Z,12.62
2023-04-23T05:55:44.826Z,12.66
2023-04-23T05:58:28.596Z,12.86
2023-04-23T06:01:12.514Z,12.01
2023-04-23T06:03:58.068Z,12.83
2023-04-23T06:06:42.412Z,13.08
2023-04-23T06:09:26.436Z,12.96
2023-04-23T06:12:11.942Z,12.96
2023-04-23T06:14:56.813Z,13.21
2023-04-23T06:17:41.907Z,13.49
2023-04-23T06:20:27.253Z,13.49
2023-04-23T06:23:11.127Z,13.62
2023-04-23T06:25:55.045Z,13.68
2023-04-23T06:28:39.628Z,13.81
2023-04-23T06:31:43.876Z,13.62
2023-04-23T06:34:27.832Z,13.68
2023-04-23T06:37:13.013Z,13.80
2023-04-23T06:39:56.840Z,14.03
2023-04-23T06:42:40.797Z,14.10
2023-04-23T06:45:35.374Z,13.99
2023-04-23T06:48:19.346Z,14.19
2023-04-23T06:51:03.258Z,14.25
2023-04-23T06:53:48.661Z,14.18
2023-04-23T06:56:32.579Z,14.21
2023-04-23T06:59:17.023Z,14.54
2023-04-23T07:02:04.245Z,14.59
2023-04-23T07:04:48.156Z,14.47
2023-04-23T07:07:32.554Z,14.70
2023-04-23T07:10:18.235Z,14.95
2023-04-23T07:13:03.688Z,15.03
2023-04-23T07:15:49.116Z,15.08
2023-04-23T07:18:33.827Z,15.40
2023-04-23T07:21:18.180Z,15.60
2023-04-23T07:24:07.045Z,15.71
2023-04-23T07:26:52.798Z,15.97
2023-04-23T07:29:36.649Z,15.86
2023-04-23T07:32:22.165Z,16.13
2023-04-23T07:35:07.269Z,16.33
2023-04-23T07:37:53.938Z,16.45
2023-04-23T07:40:38.175Z,16.48
2023-04-23T07:43:23.423Z,16.76
2023-04-23T07:46:08.931Z,17.09
2023-04-23T07:48:53.146Z,16.73
2023-04-23T07:51:37.002Z,17.31
2023-04-23T07:54:20.889Z,17.74
2023-04-23T07:57:04.810Z,17.66
2023-04-23T07:59:50.210Z,18.18
2023-04-23T08:02:34.081Z,18.32
2023-04-23T08:05:18.172Z,18.34
2023-04-23T08:08:02.039Z,18.91
2023-04-23T08:10:46.855Z,18.99
2023-04-23T08:13:30.737Z,19.49
2023-04-23T08:16:16.529Z,20.03
2023-04-23T08:21:47.283Z,19.81
2023-04-23T08:24:31.243Z,20.10
2023-04-23T08:27:15.189Z,20.50
2023-04-23T08:29:58.926Z,20.82
2023-04-23T08:32:44.357Z,20.96
2023-04-23T08:35:28.177Z,21.04
2023-04-23T08:38:12.053Z,19.59
2023-04-23T08:40:58.940Z,19.73
2023-04-23T08:43:52.920Z,18.81
2023-04-23T08:46:38.647Z,18.67
2023-04-23T08:49:24.333Z,18.97
2023-04-23T08:52:18.176Z,18.69
2023-04-23T08:55:03.775Z,18.39
2023-04-23T08:57:49.767Z,17.90
2023-04-23T09:00:35.584Z,16.93
2023-04-23T09:03:20.887Z,17.24
2023-04-23T09:06:06.639Z,16.56
2023-04-23T09:08:50.796Z,15.02
2023-04-23T09:11:37.270Z,14.45
2023-04-23T09:14:22.713Z,13.21
2023-04-23T09:17:07.064Z,12.43
2023-04-23T09:19:52.385Z,12.37
2023-04-23T09:22:47.114Z,12.19
2023-04-23T09:25:31.455Z,12.06
2023-04-23T09:28:15.569Z,11.80
2023-04-23T09:31:00.936Z,12.06
2023-04-23T09:33:45.328Z,12.10
2023-04-23T09:36:29.190Z,12.12
2023-04-23T09:39:15.410Z,12.22
2023-04-23T09:42:05.643Z,12.51
2023-04-23T09:44:58.449Z,12.95
2023-04-23T09:47:50.774Z,13.20
2023-04-23T09:50:37.071Z,12.79
2023-04-23T09:53:21.317Z,12.41
2023-04-23T09:56:08.507Z,12.53
2023-04-23T09:58:52.388Z,12.58
2023-04-23T10:01:36.315Z,13.15
2023-04-23T10:04:22.464Z,13.81
2023-04-23T10:10:00.535Z,13.80
2023-04-23T10:12:54.898Z,13.36
2023-04-23T10:15:39.682Z,13.32
2023-04-23T10:18:23.557Z,13.70
2023-04-23T10:21:08.424Z,13.66
2023-04-23T10:23:52.851Z,14.12
2023-04-23T10:26:40.516Z,14.01
2023-04-23T10:29:29.215Z,13.94
2023-04-23T10:32:13.959Z,14.27
2023-04-23T10:34:57.968Z,14.13
2023-04-23T10:37:42.844Z,14.62
2023-04-23T10:40:31.748Z,15.01
2023-04-23T10:43:16.231Z,15.42
2023-04-23T10:46:01.724Z,15.82
2023-04-23T10:49:07.678Z,16.18
2023-04-23T10:52:18.918Z,16.25
2023-04-23T10:55:03.480Z,16.61
2023-04-23T10:58:02.884Z,16.55
2023-04-23T11:00:47.833Z,16.33
2023-04-23T11:03:43.599Z,16.58
2023-04-23T11:06:54.899Z,16.91
2023-04-23T11:09:44.520Z,17.82
2023-04-23T11:12:35.132Z,18.24
2023-04-23T11:15:20.912Z,17.70
2023-04-23T11:18:04.832Z,18.21
2023-04-23T11:20:51.533Z,18.33
2023-04-23T11:23:35.442Z,18.86
2023-04-23T11:26:19.586Z,18.67
2023-04-23T11:29:04.888Z,18.17
2023-04-23T11:32:01.524Z,19.08
2023-04-23T11:34:50.029Z,19.50
2023-04-23T11:37:39.681Z,19.55
2023-04-23T11:40:24.425Z,20.13
2023-04-23T11:43:09.685Z,19.47
2023-04-23T11:45:53.857Z,20.05
2023-04-23T11:48:37.760Z,19.54
2023-04-23T11:51:27.314Z,18.69
2023-04-23T11:54:13.900Z,17.89
2023-04-23T11:56:59.864Z,17.35
2023-04-23T11:59:44.213Z,17.17
2023-04-23T12:02:28.879Z,16.68
2023-04-23T12:05:13.029Z,16.92
2023-04-23T12:08:07.649Z,17.02
2023-04-23T12:10:54.517Z,17.62
2023-04-23T12:13:42.903Z,17.83
2023-04-23T12:16:36.247Z,18.21
2023-04-23T12:19:22.050Z,17.86
2023-04-23T12:22:08.280Z,18.17
2023-04-23T12:24:53.601Z,18.93
2023-04-23T12:27:42.669Z,19.14
2023-04-23T12:30:29.940Z,19.80
2023-04-23T12:33:13.857Z,19.70
2023-04-23T12:35:58.300Z,19.62
2023-04-23T12:38:42.621Z,19.67
2023-04-23T12:41:26.485Z,19.92
2023-04-23T12:44:12.229Z,19.75
2023-04-23T12:46:58.131Z,19.76
2023-04-23T12:49:44.060Z,19.14
2023-04-23T12:52:30.622Z,19.24
2023-04-23T12:55:14.516Z,19.02
2023-04-23T12:58:00.747Z,19.45
2023-04-23T13:00:46.482Z,19.98
2023-04-23T13:03:30.502Z,19.09
2023-04-23T13:06:14.362Z,18.88
2023-04-23T13:08:58.300Z,19.58
2023-04-23T13:11:42.688Z,19.98
2023-04-23T13:14:27.249Z,20.12
2023-04-23T13:17:12.600Z,20.65
2023-04-23T13:19:57.297Z,19.83
2023-04-23T13:22:41.224Z,19.13
2023-04-23T13:25:25.140Z,19.38
2023-04-23T13:28:09.089Z,20.01
2023-04-23T13:30:52.987Z,19.96
2023-04-23T13:33:38.252Z,19.82
2023-04-23T13:36:22.395Z,19.52
2023-04-23T13:39:07.311Z,19.58
2023-04-23T13:42:06.065Z,19.08
2023-04-23T13:44:52.654Z,19.56
2023-04-23T13:47:36.720Z,18.43
2023-04-23T13:50:22.420Z,18.49
2023-04-23T13:53:06.397Z,18.13
2023-04-23T13:55:50.233Z,17.74
2023-04-23T13:58:34.100Z,17.91
2023-04-23T14:01:18.018Z,17.20
2023-04-23T14:04:04.432Z,18.01
2023-04-23T14:06:50.137Z,18.14
2023-04-23T14:09:34.124Z,18.19
2023-04-23T14:12:18.720Z,18.21
2023-04-23T14:15:02.966Z,18.14
2023-04-23T14:17:49.316Z,18.26
2023-04-23T14:20:33.355Z,18.56
2023-04-23T14:23:50.519Z,18.67
2023-04-23T14:26:48.052Z,18.39
2023-04-23T14:29:37.909Z,18.15
2023-04-23T14:32:21.876Z,18.79
2023-04-23T14:35:06.470Z,18.26
2023-04-23T14:37:50.578Z,17.66
2023-04-23T14:40:35.877Z,18.06
2023-04-23T14:43:19.988Z,17.51
2023-04-23T14:46:03.910Z,17.45
2023-04-23T14:48:48.571Z,16.97
2023-04-23T14:51:33.917Z,17.38
2023-04-23T14:54:18.190Z,17.95
2023-04-23T14:57:03.679Z,17.79
2023-04-23T14:59:47.778Z,17.57
2023-04-23T15:02:32.988Z,17.30
2023-04-23T15:05:17.036Z,17.14
2023-04-23T15:08:01.574Z,17.99
2023-04-23T15:10:45.705Z,18.33
2023-04-23T15:13:40.213Z,17.92
2023-04-23T15:16:47.386Z,16.76
2023-04-23T15:19:32.987Z,16.98
2023-04-23T15:22:16.868Z,16.48
2023-04-23T15:25:00.815Z,16.14
2023-04-23T15:27:46.062Z,16.51
2023-04-23T15:30:31.448Z,16.33
2023-04-23T15:33:15.461Z,16.71
2023-04-23T15:35:59.986Z,16.59
2023-04-23T15:38:44.231Z,16.45
2023-04-23T15:41:28.224Z,16.18
2023-04-23T15:44:12.707Z,15.87
2023-04-23T15:47:01.337Z,15.71
2023-04-23T15:49:45.194Z,15.70
2023-04-23T15:52:29.107Z,16.04
2023-04-23T15:55:13.061Z,16.38
2023-04-23T15:57:59.064Z,16.47
2023-04-23T16:00:42.969Z,16.14
2023-04-23T16:03:28.398Z,15.60
2023-04-23T16:06:12.613Z,15.59
2023-04-23T16:08:56.539Z,15.25
2023-04-23T16:11:40.898Z,15.45
2023-04-23T16:14:24.780Z,15.02
2023-04-23T16:17:08.651Z,15.18
2023-04-23T16:19:53.926Z,15.36
2023-04-23T16:22:37.827Z,14.87
2023-04-23T16:25:21.857Z,14.87
2023-04-23T16:28:06.300Z,14.86
2023-04-23T16:30:50.476Z,14.22
2023-04-23T16:33:34.689Z,14.30
2023-04-23T16:36:21.423Z,14.69
2023-04-23T16:39:05.690Z,14.60
2023-04-23T16:41:49.788Z,14.73
2023-04-23T16:44:33.855Z,14.20
2023-04-23T16:47:18.074Z,14.55
2023-04-23T16:50:02.223Z,14.18
2023-04-23T16:52:50.737Z,14.32
2023-04-23T16:55:34.744Z,14.35
2023-04-23T16:58:19.130Z,14.22
2023-04-23T17:01:03.224Z,13.96
2023-04-23T17:03:47.501Z,13.78
2023-04-23T17:06:33.464Z,13.80
2023-04-23T17:09:20.215Z,13.53
2023-04-23T17:12:04.458Z,13.72
2023-04-23T17:14:48.698Z,13.67
2023-04-23T17:17:32.862Z,13.56
2023-04-23T17:20:17.082Z,13.19
2023-04-23T17:23:01.443Z,13.11
2023-04-23T17:25:47.191Z,13.01
2023-04-23T17:28:31.344Z,12.99
2023-04-23T17:31:15.924Z,12.92
2023-04-23T17:34:00.116Z,12.43
2023-04-23T17:36:44.499Z,12.50
2023-04-23T17:39:28.789Z,12.07
2023-04-23T17:42:14.857Z,12.01
2023-04-23T17:44:59.341Z,12.11
2023-04-23T17:47:43.731Z,12.03
2023-04-23T17:50:28.612Z,11.68
2023-04-23T17:53:12.767Z,11.72
2023-04-23T17:56:00.662Z,11.86
2023-04-23T17:58:46.700Z,11.52
2023-04-23T18:01:31.087Z,11.61
2023-04-23T18:04:17.516Z,11.14
2023-04-23T18:07:02.361Z,11.31
2023-04-23T18:09:47.424Z,11.17
2023-04-23T18:12:32.196Z,11.14
2023-04-23T18:15:17.907Z,11.12
2023-04-23T18:18:02.285Z,10.77
2023-04-23T18:20:47.733Z,10.88
2023-04-23T18:23:32.521Z,10.87
2023-04-23T18:26:16.846Z,10.78
2023-04-23T18:29:01.213Z,10.98
2023-04-23T18:31:46.864Z,10.96
2023-04-23T18:34:32.956Z,11.03
2023-04-23T18:37:34.104Z,10.84
2023-04-23T18:40:18.812Z,10.83
2023-04-23T18:43:04.077Z,10.54
2023-04-23T18:45:48.496Z,10.14
2023-04-23T18:48:59.635Z,10.46
2023-04-23T18:51:47.213Z,10.53
2023-04-23T18:54:31.717Z,10.42
2023-04-23T18:57:16.165Z,10.53
2023-04-23T19:00:00.404Z,10.35
2023-04-23T19:02:44.852Z,10.32
2023-04-23T19:05:31.986Z,10.24
2023-04-23T19:08:18.071Z,10.19
2023-04-23T19:11:02.905Z,10.46
2023-04-23T19:13:47.119Z,10.55
2023-04-23T19:16:31.708Z,10.29
2023-04-23T19:19:16.217Z,10.26
2023-04-23T19:22:04.283Z,10.26
2023-04-23T19:24:48.410Z,10.03
2023-04-23T19:27:32.560Z,10.48
2023-04-23T19:30:16.884Z,10.22
2023-04-23T19:33:01.355Z,10.14
2023-04-23T19:35:46.154Z,10.40
2023-04-23T19:38:31.759Z,10.29
2023-04-23T19:41:15.818Z,10.29
2023-04-23T19:44:00.148Z,10.15
2023-04-23T19:46:44.524Z,10.49
2023-04-23T19:49:29.224Z,10.12
2023-04-23T19:52:18.550Z,10.19
2023-04-23T19:55:04.527Z,10.51
2023-04-23T19:57:49.336Z,10.35
2023-04-23T20:00:42.618Z,10.12
2023-04-23T20:03:28.090Z,9.86
2023-04-23T20:06:12.710Z,9.85
2023-04-23T20:09:07.869Z,9.80
2023-04-23T20:11:53.852Z,9.50
2023-04-23T20:14:38.129Z,10.02
2023-04-23T20:17:22.409Z,9.80
2023-04-23T20:20:10.882Z,10.06
2023-04-23T20:22:55.246Z,9.95
2023-04-23T20:25:41.887Z,9.55
2023-04-23T20:28:27.638Z,9.44
2023-04-23T20:31:11.517Z,9.03
2023-04-23T20:33:55.967Z,9.58
2023-04-23T20:36:39.877Z,9.89
2023-04-23T20:39:24.477Z,9.85
2023-04-23T20:42:08.978Z,9.48
2023-04-23T20:44:54.203Z,8.76
2023-04-23T20:47:38.152Z,9.70
2023-04-23T20:50:22.309Z,9.63
2023-04-23T20:53:06.711Z,9.38
2023-04-23T20:55:50.961Z,9.38
2023-04-23T20:58:34.766Z,9.36
2023-04-23T21:01:20.084Z,9.21
2023-04-23T21:04:04.282Z,9.30
2023-04-23T21:06:48.362Z,9.19
2023-04-23T21:09:32.384Z,9.30
2023-04-23T21:12:16.199Z,8.84
2023-04-23T21:15:00.682Z,9.44
2023-04-23T21:17:45.898Z,9.67
2023-04-23T21:20:29.861Z,9.80
2023-04-23T21:23:13.977Z,9.27
2023-04-23T21:25:57.840Z,8.88
2023-04-23T21:28:41.753Z,8.55
2023-04-23T21:31:35.126Z,8.76
2023-04-23T21:34:21.491Z,9.01
2023-04-23T21:37:05.339Z,8.86
2023-04-23T21:39:49.175Z,8.80
2023-04-23T21:42:33.100Z,8.99
2023-04-23T21:45:17.725Z,8.93
2023-04-23T21:48:02.172Z,8.88
2023-04-23T21:50:48.251Z,8.50
2023-04-23T21:53:32.067Z,8.54
2023-04-23T21:56:16.481Z,8.37
2023-04-23T21:59:00.732Z,8.57
2023-04-23T22:01:44.534Z,8.58
2023-04-23T22:04:29.418Z,8.58
2023-04-23T22:07:14.810Z,8.38
2023-04-23T22:10:00.347Z,8.69
2023-04-23T22:12:45.942Z,8.81
2023-04-23T22:15:29.966Z,8.19
2023-04-23T22:18:13.839Z,8.48
2023-04-23T22:20:57.663Z,8.52
2023-04-23T22:23:42.906Z,8.61
2023-04-23T22:26:26.879Z,8.48
2023-04-23T22:29:10.743Z,8.63
2023-04-23T22:31:54.599Z,8.61
2023-04-23T22:34:38.653Z,8.66
2023-04-23T22:37:22.983Z,8.60
2023-04-23T22:40:10.467Z,8.39
2023-04-23T22:42:54.330Z,7.89
2023-04-23T22:45:38.136Z,8.13
2023-04-23T22:48:22.202Z,7.77
2023-04-23T22:51:07.075Z,8.21
2023-04-23T22:53:50.901Z,8.30
2023-04-23T22:56:37.696Z,8.34
2023-04-23T22:59:22.043Z,8.05
2023-04-23T23:02:06.101Z,8.34
2023-04-23T23:04:50.055Z,8.48
2023-04-23T23:07:33.965Z,8.24
2023-04-23T23:10:17.909Z,8.27
2023-04-23T23:13:04.746Z,8.30
2023-04-23T23:15:48.828Z,8.44
2023-04-23T23:18:32.812Z,8.50
2023-04-23T23:21:17.124Z,8.31
2023-04-23T23:24:01.253Z,8.41
2023-04-23T23:26:45.244Z,8.20
2023-04-23T23:29:30.513Z,8.17
2023-04-23T23:32:14.358Z,8.29
2023-04-23T23:34:58.270Z,8.19
2023-04-23T23:37:42.248Z,8.38
2023-04-23T23:40:26.205Z,8.05
2023-04-23T23:43:10.137Z,8.35
2023-04-23T23:45:55.297Z,7.99
2023-04-23T23:48:39.371Z,8.00
2023-04-23T23:51:23.185Z,7.55
2023-04-23T23:54:07.631Z,7.94
2023-04-23T23:56:51.612Z,7.89
2023-04-23T23:59:35.424Z,7.79
